Aérodrome :
LOGIN :

S'inscrire | Disclaimer

   EN    FR    IT 

 










Légende :    VFR   VFR Marginal   IFR   IFR Intensif   IFR Très Intensif
Visi : 
Plafond : 
>= 8 km
>= 3000ft
5 à 8 km
1000 à 3000 ft
1500m à 5 km
500 à 1000 ft
800 à 1500m
200 à 500 ft
< 800m
< 200 ft
Symboles :   Orages  Brouillard  Fortes neiges  Fortes précipitations  Vent > 20 kt
SIGMETs :   Divers  Orages  Givrage  Turbulence  Onde Orograph.  Cendres Volcan.







- Altitude de l'aérodrome : 45 ft
- Code IATA : CEG
- Voir les cartes d'approche


EGNR - Hawarden Chester

DERNIER METAR :
  • 170950Z 36008KT 9999 -SHRA FEW025 SCT039 13/10 Q1027

METARs EXPIRÉS :
  • 170920Z 34009KT 9999 FEW025 SCT039 14/09 Q1027
  • 170850Z 32010KT 9999 FEW030 SCT039 14/09 Q1027
  • 170820Z 32008KT 9999 FEW024 SCT038 14/09 Q1027
  • 170750Z 33007KT 300V360 9999 FEW024 SCT035 13/09 Q1027
  • 170720Z 32005KT 9999 FEW025 SCT033 13/09 Q1026
  • 170650Z 31005KT 270V340 9999 SCT038 13/08 Q1026

TAF TAF EGNR
Valide du 17 à 09h jusqu'au 17 à 18h UTC


170759Z 1709/1718 33007KT 9999 SCT035
Pas de NOTAMs connus pour ce terrain.



MET'MAP, la Météo Aéronautique d'un coup d'oeil ! - Copyright ORBIFLY Décembre 2007 - Disclaimer

ORBIFLY MET'MAP TEAM :

Programmation & Développement : Alexandra Zaïnal
Conception & Développement : Baudouin d'Aumeries
Co-Programmation & Développement : Marc-Olivier Méhu
Soutien technique & logistique : Manuel Goepfert

Contact : metmap@orbifly.com




SOURCES & CREDITS :

   NOAA